Jack Guidry — WDF2422 — position and weather

sailwx.info

Track history (hours):
 
Tides and Currents Weather Stations Pressure Air Temp Water Temp Dewpoint Dewpoint Depression Visibility Wind Speed Wind Dir Waves Ship Positions

Jack Guidry

Owner: Enterprise Marine Services, LLC, San Antonio, TX. More information available from US FCC via Universal Licensing System and Coast Guard Vessel Documentation Center.

Last reported at 2017-Oct-18 05:46 UTC. Time now 2017-Oct-18 07:39 UTC.
Position N 29°44' W 095°02'.

Length 22 m; draft 3 m.

Type: . MMSI: 367003430.

Date/timePositionNaut miles runAvg speedWind from/ knotsBaromVisibWave heightAir tempDewpointWater temp
2017-Oct-18 05:46N 29°44' W 095°02'2 4.8
2017-Oct-18 05:26N 29°43' W 095°01'2 5.0
2017-Oct-18 05:00N 29°41' W 094°59'3 5.6
2017-Oct-18 04:29N 29°39' W 094°58'3 5.7
2017-Oct-18 04:00N 29°36' W 094°57'3 6.0
2017-Oct-18 03:30N 29°34' W 094°55'3 0.2
2017-Oct-17 13:12N 29°36' W 094°57'2 7.5
2017-Oct-17 12:59N 29°38' W 094°58'4 6.9
2017-Oct-17 12:26N 29°41' W 094°59'6 1.8
2017-Oct-17 08:46N 29°46' W 095°05'  
2017-Oct-15 04:19N 29°44' W 095°03'2 5.2
2017-Oct-15 04:00N 29°44' W 095°02'2 4.3
2017-Oct-15 03:29N 29°42' W 095°00'2 4.5
2017-Oct-15 03:00N 29°40' W 094°59'2 4.1
2017-Oct-15 02:26N 29°38' W 094°58'2 5.5
2017-Oct-15 02:01N 29°36' W 094°57'3 5.6
2017-Oct-15 01:30N 29°34' W 094°55'78 3.6
2017-Oct-14 03:47N 30°04' W 093°32'1 4.3
2017-Oct-14 03:31N 30°04' W 093°31'2 4.3
2017-Oct-14 03:00N 30°04' W 093°28'2 4.1
2017-Oct-14 02:31N 30°04' W 093°26'2 4.1
2017-Oct-14 02:00N 30°04' W 093°23'2 3.8
2017-Oct-14 01:30N 30°04' W 093°21'2 3.6
2017-Oct-14 01:00N 30°05' W 093°20'1 2.5
2017-Oct-14 00:30N 30°06' W 093°19'0 0.1
2017-Oct-14 00:00N 30°06' W 093°19'0 0.1
2017-Oct-13 23:27N 30°06' W 093°19'0 0.0
2017-Oct-13 23:00N 30°06' W 093°19'0 0.0
2017-Oct-13 22:27N 30°06' W 093°19'0 0.0
2017-Oct-13 22:00N 30°06' W 093°19'0 0.0
2017-Oct-13 21:30N 30°06' W 093°19'0 0.1
2017-Oct-13 20:59N 30°06' W 093°19'1 1.4
2017-Oct-13 20:31N 30°06' W 093°20'2 3.2
2017-Oct-13 19:58N 30°08' W 093°20'0 0.9
2017-Oct-13 19:28N 30°08' W 093°19'0 0.0
2017-Oct-13 19:00N 30°08' W 093°19'0 0.1
2017-Oct-13 18:28N 30°08' W 093°19'0 0.0
2017-Oct-13 17:58N 30°08' W 093°19'0 0.0
2017-Oct-13 17:28N 30°08' W 093°19'0 0.0
2017-Oct-13 16:58N 30°08' W 093°19'0 0.0
2017-Oct-13 16:30N 30°08' W 093°19'0 0.0
2017-Oct-13 16:00N 30°08' W 093°19'0 0.0
2017-Oct-13 15:30N 30°08' W 093°19'0 0.0
2017-Oct-13 15:00N 30°08' W 093°19'0 0.0
2017-Oct-13 14:30N 30°08' W 093°19'0 0.0
2017-Oct-13 14:00N 30°08' W 093°19'0 0.0
2017-Oct-13 13:30N 30°08' W 093°19'0 0.0
2017-Oct-13 12:57N 30°08' W 093°19'0 0.0
2017-Oct-13 12:30N 30°08' W 093°19'0 0.0
2017-Oct-13 12:00N 30°08' W 093°19'0 0.0
2017-Oct-13 11:30N 30°08' W 093°19'0 0.0
2017-Oct-13 11:00N 30°08' W 093°19'0 0.0
2017-Oct-13 10:30N 30°08' W 093°19'0 0.0
2017-Oct-13 09:57N 30°08' W 093°19'0 0.0
2017-Oct-13 09:30N 30°08' W 093°19'0 0.0
2017-Oct-13 09:00N 30°08' W 093°19'0 0.0
2017-Oct-13 08:30N 30°08' W 093°19'0 0.0
2017-Oct-13 08:00N 30°08' W 093°19'0 0.0
2017-Oct-13 07:30N 30°08' W 093°19'0 0.0
2017-Oct-13 07:00N 30°08' W 093°19'0 0.0
2017-Oct-13 06:30N 30°08' W 093°19'0 0.0
2017-Oct-13 06:00N 30°08' W 093°19'0 0.0
2017-Oct-13 05:27N 30°08' W 093°19'0 0.0
2017-Oct-13 05:00N 30°08' W 093°19'0 0.0
2017-Oct-13 04:30N 30°08' W 093°19'0 0.0
2017-Oct-13 04:00N 30°08' W 093°19'0 0.0
2017-Oct-13 03:30N 30°08' W 093°19'0 0.0
2017-Oct-13 03:00N 30°08' W 093°19'0 0.1
2017-Oct-13 02:30N 30°08' W 093°19'1 1.7
2017-Oct-13 02:01N 30°08' W 093°20'2 3.7
2017-Oct-13 01:30N 30°06' W 093°19'0 0.5
2017-Oct-13 00:58N 30°06' W 093°19'0 0.0
2017-Oct-13 00:28N 30°06' W 093°19'2 4.0
2017-Oct-13 00:00N 30°05' W 093°20'2 4.2
2017-Oct-12 23:30N 30°04' W 093°22'3 6.4
2017-Oct-12 23:00N 30°04' W 093°26'3 6.5
2017-Oct-12 22:30N 30°04' W 093°30'80 4.3
2017-Oct-12 03:51N 29°35' W 094°56'3 6.7
2017-Oct-12 03:23N 29°38' W 094°58'3 7.0
2017-Oct-12 03:00N 29°41' W 094°59'  
2017-Oct-09 01:34N 29°44' W 095°09'0 5.6
2017-Oct-09 01:30N 29°44' W 095°09'2 3.9
2017-Oct-09 00:57N 29°45' W 095°11'2 3.3
2017-Oct-09 00:22N 29°43' W 095°13'0 0.0
2017-Oct-08 13:56N 29°43' W 095°13'0 0.0
2017-Oct-08 13:09N 29°43' W 095°13'0 0.0
2017-Oct-08 12:51N 29°43' W 095°13'0 0.0
2017-Oct-08 11:20N 29°43' W 095°13'0 0.0
2017-Oct-08 10:54N 29°43' W 095°13'0 0.0
2017-Oct-08 10:30N 29°43' W 095°13'0 0.0
2017-Oct-08 09:55N 29°43' W 095°13'0 0.0
2017-Oct-08 09:27N 29°43' W 095°13'0 0.0
2017-Oct-08 08:58N 29°43' W 095°13'  
Track history (hours):
 
Tides and Currents Weather Stations Pressure Air Temp Water Temp Dewpoint Dewpoint Depression Visibility Wind Speed Wind Dir Waves Ship Positions

Jack Guidry

Owner: Enterprise Marine Services, LLC, San Antonio, TX. More information available from US FCC via Universal Licensing System and Coast Guard Vessel Documentation Center.

Last reported at 2017-Oct-18 05:46 UTC. Time now 2017-Oct-18 07:39 UTC.
Position N 29°44' W 095°02'.

Length 22 m; draft 3 m.

Type: . MMSI: 367003430.

Date/timePositionNaut miles runAvg speedWind from/ knotsBaromVisibWave heightAir tempDewpointWater temp
2017-Oct-18 05:46N 29°44' W 095°02'2 4.8
2017-Oct-18 05:26N 29°43' W 095°01'2 5.0
2017-Oct-18 05:00N 29°41' W 094°59'3 5.6
2017-Oct-18 04:29N 29°39' W 094°58'3 5.7
2017-Oct-18 04:00N 29°36' W 094°57'3 6.0
2017-Oct-18 03:30N 29°34' W 094°55'3 0.2
2017-Oct-17 13:12N 29°36' W 094°57'2 7.5
2017-Oct-17 12:59N 29°38' W 094°58'4 6.9
2017-Oct-17 12:26N 29°41' W 094°59'6 1.8
2017-Oct-17 08:46N 29°46' W 095°05'  
2017-Oct-15 04:19N 29°44' W 095°03'2 5.2
2017-Oct-15 04:00N 29°44' W 095°02'2 4.3
2017-Oct-15 03:29N 29°42' W 095°00'2 4.5
2017-Oct-15 03:00N 29°40' W 094°59'2 4.1
2017-Oct-15 02:26N 29°38' W 094°58'2 5.5
2017-Oct-15 02:01N 29°36' W 094°57'3 5.6
2017-Oct-15 01:30N 29°34' W 094°55'78 3.6
2017-Oct-14 03:47N 30°04' W 093°32'1 4.3
2017-Oct-14 03:31N 30°04' W 093°31'2 4.3
2017-Oct-14 03:00N 30°04' W 093°28'2 4.1
2017-Oct-14 02:31N 30°04' W 093°26'2 4.1
2017-Oct-14 02:00N 30°04' W 093°23'2 3.8
2017-Oct-14 01:30N 30°04' W 093°21'2 3.6
2017-Oct-14 01:00N 30°05' W 093°20'1 2.5
2017-Oct-14 00:30N 30°06' W 093°19'0 0.1
2017-Oct-14 00:00N 30°06' W 093°19'0 0.1
2017-Oct-13 23:27N 30°06' W 093°19'0 0.0
2017-Oct-13 23:00N 30°06' W 093°19'0 0.0
2017-Oct-13 22:27N 30°06' W 093°19'0 0.0
2017-Oct-13 22:00N 30°06' W 093°19'0 0.0
2017-Oct-13 21:30N 30°06' W 093°19'0 0.1
2017-Oct-13 20:59N 30°06' W 093°19'1 1.4
2017-Oct-13 20:31N 30°06' W 093°20'2 3.2
2017-Oct-13 19:58N 30°08' W 093°20'0 0.9
2017-Oct-13 19:28N 30°08' W 093°19'0 0.0
2017-Oct-13 19:00N 30°08' W 093°19'0 0.1
2017-Oct-13 18:28N 30°08' W 093°19'0 0.0
2017-Oct-13 17:58N 30°08' W 093°19'0 0.0
2017-Oct-13 17:28N 30°08' W 093°19'0 0.0
2017-Oct-13 16:58N 30°08' W 093°19'0 0.0
2017-Oct-13 16:30N 30°08' W 093°19'0 0.0
2017-Oct-13 16:00N 30°08' W 093°19'0 0.0
2017-Oct-13 15:30N 30°08' W 093°19'0 0.0
2017-Oct-13 15:00N 30°08' W 093°19'0 0.0
2017-Oct-13 14:30N 30°08' W 093°19'0 0.0
2017-Oct-13 14:00N 30°08' W 093°19'0 0.0
2017-Oct-13 13:30N 30°08' W 093°19'0 0.0
2017-Oct-13 12:57N 30°08' W 093°19'0 0.0
2017-Oct-13 12:30N 30°08' W 093°19'0 0.0
2017-Oct-13 12:00N 30°08' W 093°19'0 0.0
2017-Oct-13 11:30N 30°08' W 093°19'0 0.0
2017-Oct-13 11:00N 30°08' W 093°19'0 0.0
2017-Oct-13 10:30N 30°08' W 093°19'0 0.0
2017-Oct-13 09:57N 30°08' W 093°19'0 0.0
2017-Oct-13 09:30N 30°08' W 093°19'0 0.0
2017-Oct-13 09:00N 30°08' W 093°19'0 0.0
2017-Oct-13 08:30N 30°08' W 093°19'0 0.0
2017-Oct-13 08:00N 30°08' W 093°19'0 0.0
2017-Oct-13 07:30N 30°08' W 093°19'0 0.0
2017-Oct-13 07:00N 30°08' W 093°19'0 0.0
2017-Oct-13 06:30N 30°08' W 093°19'0 0.0
2017-Oct-13 06:00N 30°08' W 093°19'0 0.0
2017-Oct-13 05:27N 30°08' W 093°19'0 0.0
2017-Oct-13 05:00N 30°08' W 093°19'0 0.0
2017-Oct-13 04:30N 30°08' W 093°19'0 0.0
2017-Oct-13 04:00N 30°08' W 093°19'0 0.0
2017-Oct-13 03:30N 30°08' W 093°19'0 0.0
2017-Oct-13 03:00N 30°08' W 093°19'0 0.1
2017-Oct-13 02:30N 30°08' W 093°19'1 1.7
2017-Oct-13 02:01N 30°08' W 093°20'2 3.7
2017-Oct-13 01:30N 30°06' W 093°19'0 0.5
2017-Oct-13 00:58N 30°06' W 093°19'0 0.0
2017-Oct-13 00:28N 30°06' W 093°19'2 4.0
2017-Oct-13 00:00N 30°05' W 093°20'2 4.2
2017-Oct-12 23:30N 30°04' W 093°22'3 6.4
2017-Oct-12 23:00N 30°04' W 093°26'3 6.5
2017-Oct-12 22:30N 30°04' W 093°30'80 4.3
2017-Oct-12 03:51N 29°35' W 094°56'3 6.7
2017-Oct-12 03:23N 29°38' W 094°58'3 7.0
2017-Oct-12 03:00N 29°41' W 094°59'  
2017-Oct-09 01:34N 29°44' W 095°09'0 5.6
2017-Oct-09 01:30N 29°44' W 095°09'2 3.9
2017-Oct-09 00:57N 29°45' W 095°11'2 3.3
2017-Oct-09 00:22N 29°43' W 095°13'0 0.0
2017-Oct-08 13:56N 29°43' W 095°13'0 0.0
2017-Oct-08 13:09N 29°43' W 095°13'0 0.0
2017-Oct-08 12:51N 29°43' W 095°13'0 0.0
2017-Oct-08 11:20N 29°43' W 095°13'0 0.0
2017-Oct-08 10:54N 29°43' W 095°13'0 0.0
2017-Oct-08 10:30N 29°43' W 095°13'0 0.0
2017-Oct-08 09:55N 29°43' W 095°13'0 0.0
2017-Oct-08 09:27N 29°43' W 095°13'0 0.0
2017-Oct-08 08:58N 29°43' W 095°13'  

Dump ship's entire track history